Newport, AR

10:34 PM CST on February 21, 2017 (GMT -0600)
Newport | | Change Station
Active Advisory: Dense Fog Advisory

Elev 240 ft 35.64 °N, 91.18 °W | Updated 38 minutes ago

Overcast
Overcast
59 °F
Feels Like 59 °F
N
8
Wind Variable Wind from NNE

Today
High -- | Low -- °F
--% Chance of Precip.
Yesterday
High -- | Low -- °F
Precip. -- in
Pressure 29.91 in
Visibility 7.0 miles
Clouds Clear
Dew Point 58 °F
Humidity 96%
Rainfall 0.00 in
Snow Depth Not available.
6:44 AM 5:53 PM
Waning Crescent, 20% visible
METAR KM19 220356Z AUTO 03007KT 7SM CLR 15/14 A2989 RMK AO2 SLP127 T01500144
Pressure 29.91 in
Visibility 7.0 miles
Clouds Clear
Dew Point 58 °F
Humidity 96%
Rainfall 0.00 in
Snow Depth Not available.
6:44 AM 5:53 PM
Waning Crescent, 20% visible
METAR KM19 220356Z AUTO 03007KT 7SM CLR 15/14 A2989 RMK AO2 SLP127 T01500144

Get Your Daily Forecast Email!

Thanks for signing up!

Be on the lookout for a verification email in your inbox.

You'll start receiving the daily forecast at 8 AM.

×

10-Day Weather Forecast

Almanac

Astronomy

Feb. 21, 2017 Rise Set
Actual Time
Civil Twilight
Nautical Twilight
Astronomical Twilight
Moon
Length of Visible Light
Length of Day
Tomorrow will be .
, % of the Moon is Illuminated

Today's Extremes

State Highs State Lows

Community

WunderPhotos

Upload Photos

1,962,540 photos uploaded!

WunderBlog® & News

Nearby

Air Quality

  Air Quality AQ Index Pollutant
Not available.

Snow Depth

Station Depth Elevation

Earthquake Activity

City Distance Mag. Time & Date
Minimum magnitude displayed is 2.5.

Coastal Water Temperatures

Place Temperature

Stations

Nearby Weather Stations

Station Location Temp. Windchill Dew Point Humidity Wind Precip. Elev Updated Type
                   

Watches & Warnings

Dense Fog Advisory
Issued: 9:31 PM CST Feb. 21, 2017 – National Weather Service

... Dense fog advisory in effect until 8 am CST Wednesday...

The National Weather Service in Little Rock has issued a dense
fog advisory, which is in effect until 8 am CST Wednesday.

* Event... dense fog.

* Areas affected... much of central and northern Arkansas.

* Visibility... at times, less than one quarter mile.

* Impacts... visibility will be reduced substantially.

Precautionary/preparedness actions...

A dense fog advisory means visibilities will frequently be
reduced to less than one quarter mile. If driving... slow down...
use your headlights... and leave plenty of distance ahead of you.